Time;durP1;ratioP1;P1;durP2;ratioP2;P2;SDS_P1;SDS_P2;PMS_P1;PMS_P2;Temp;Humidity;BMP_temperature;BMP_pressure;BME280_temperature;BME280_humidity;BME280_pressure;Samples;Min_cycle;Max_cycle;Signal;HPM_P1;HPM_P2
2024/02/20 00:01:43;;;;;;;21.13;2.83;;;;;;;4.57;60.97;102374.47;4948435;28;20497;-68
2024/02/20 00:04:09;;;;;;;30.73;4.70;;;;;;;4.50;61.04;102377.88;4960799;28;20034;-67
2024/02/20 00:06:35;;;;;;;24.05;3.33;;;;;;;4.50;60.90;102382.16;4960909;28;20046;-65
2024/02/20 00:09:02;;;;;;;25.00;3.15;;;;;;;4.17;61.65;102370.63;4959619;28;20221;-65
2024/02/20 00:11:28;;;;;;;24.63;2.42;;;;;;;4.14;61.96;102373.16;4940029;28;20042;-70
2024/02/20 00:13:54;;;;;;;28.30;2.28;;;;;;;4.15;61.61;102377.50;4950574;28;20042;-67
2024/02/20 00:16:21;;;;;;;29.20;3.28;;;;;;;4.46;60.81;102380.41;4960412;28;20035;-67
2024/02/20 00:18:48;;;;;;;32.67;4.00;;;;;;;4.83;59.98;102374.69;4952024;28;20034;-67
2024/02/20 00:21:13;;;;;;;22.98;3.40;;;;;;;4.51;60.48;102363.19;4955332;28;20066;-67
2024/02/20 00:23:39;;;;;;;34.70;3.53;;;;;;;4.61;60.48;102371.06;4914899;28;20629;-70
2024/02/20 00:26:04;;;;;;;31.80;3.92;;;;;;;4.88;59.22;102384.25;4929155;28;20140;-67
2024/02/20 00:28:30;;;;;;;39.03;3.60;;;;;;;4.19;61.06;102381.88;4961051;28;20066;-70
2024/02/20 00:30:55;;;;;;;26.77;3.67;;;;;;;4.52;60.16;102390.81;4951918;28;20050;-69
2024/02/20 00:33:21;;;;;;;22.95;3.25;;;;;;;4.67;59.79;102383.19;4954332;28;20074;-70
2024/02/20 00:35:47;;;;;;;24.25;3.13;;;;;;;4.28;60.64;102391.44;4943625;28;20595;-71
2024/02/20 00:38:12;;;;;;;29.75;4.22;;;;;;;4.01;61.85;102390.28;4969588;28;20034;-70
2024/02/20 00:40:39;;;;;;;22.02;2.70;;;;;;;4.35;60.79;102404.47;4932441;28;20046;-70
2024/02/20 00:43:05;;;;;;;34.83;3.78;;;;;;;3.91;61.37;102402.22;4940085;28;21980;-69
2024/02/20 00:45:30;;;;;;;20.33;3.08;;;;;;;4.23;60.96;102404.34;4944737;28;20038;-70
2024/02/20 00:47:56;;;;;;;39.67;3.45;;;;;;;4.18;60.92;102411.16;4937434;28;20030;-69
2024/02/20 00:50:21;;;;;;;28.67;3.75;;;;;;;3.95;61.60;102409.19;4941195;28;21025;-69
2024/02/20 00:52:47;;;;;;;28.23;3.67;;;;;;;4.06;61.15;102408.44;4915349;28;20048;-77
2024/02/20 00:55:13;;;;;;;27.92;3.55;;;;;;;4.38;60.21;102420.00;4937343;28;20049;-74
2024/02/20 00:57:41;;;;;;;33.55;3.60;;;;;;;4.32;60.70;102409.63;4959614;28;20038;-74
2024/02/20 01:00:13;;;;;;;18.35;2.92;;;;;;;4.61;60.14;102409.91;4953005;28;20504;-74
2024/02/20 01:02:40;;;;;;;32.08;4.57;;;;;;;4.38;60.43;102417.41;4977827;28;20026;-73
2024/02/20 01:05:10;;;;;;;46.50;4.65;;;;;;;4.55;60.29;102421.94;4950888;28;20042;-74
2024/02/20 01:07:40;;;;;;;26.17;3.42;;;;;;;4.47;60.75;102420.97;4961931;28;20034;-75
2024/02/20 01:10:06;;;;;;;28.25;3.42;;;;;;;4.67;60.17;102422.03;4942742;28;20384;-73
2024/02/20 01:12:32;;;;;;;30.13;3.80;;;;;;;4.59;59.78;102419.38;4893474;28;20088;-74
2024/02/20 01:14:58;;;;;;;20.73;3.08;;;;;;;4.84;59.66;102423.06;4887780;28;20482;-75
2024/02/20 01:17:26;;;;;;;27.55;3.08;;;;;;;4.92;59.18;102418.00;4900521;28;20030;-74
2024/02/20 01:19:52;;;;;;;33.05;4.57;;;;;;;4.92;59.35;102420.59;4885546;28;20397;-75
2024/02/20 01:22:17;;;;;;;32.38;3.20;;;;;;;4.93;59.40;102418.84;4898457;28;20073;-75
2024/02/20 01:24:42;;;;;;;41.85;4.55;;;;;;;4.88;59.74;102421.41;4961749;28;20608;-75
2024/02/20 01:27:08;;;;;;;25.17;3.13;;;;;;;4.71;59.89;102431.56;4950993;28;21140;-73
2024/02/20 01:29:34;;;;;;;36.78;4.18;;;;;;;4.82;59.82;102417.00;4945057;28;20125;-74
2024/02/20 01:31:59;;;;;;;29.58;4.00;;;;;;;4.51;60.03;102420.16;4934839;28;20046;-74
2024/02/20 01:34:25;;;;;;;22.92;3.92;;;;;;;4.49;60.15;102427.91;4959562;28;20062;-76
2024/02/20 01:36:54;;;;;;;21.58;3.45;;;;;;;4.63;59.92;102420.25;4938433;28;20125;-75
2024/02/20 01:39:20;;;;;;;20.92;3.85;;;;;;;4.62;60.03;102427.16;4954418;28;20030;-76
2024/02/20 01:41:46;;;;;;;36.53;3.95;;;;;;;4.55;59.98;102422.78;4935228;28;20620;-76
2024/02/20 01:44:13;;;;;;;19.23;4.20;;;;;;;4.68;59.39;102423.78;4951740;28;20042;-68
2024/02/20 01:46:41;;;;;;;42.17;5.18;;;;;;;4.72;59.44;102425.56;4944430;28;20046;-66
2024/02/20 01:49:07;;;;;;;24.17;3.25;;;;;;;4.88;58.72;102426.59;4945191;28;20039;-66
2024/02/20 01:51:37;;;;;;;36.95;4.28;;;;;;;4.88;58.56;102425.69;4940372;28;20472;-66
2024/02/20 01:54:04;;;;;;;27.52;3.28;;;;;;;4.69;59.20;102430.69;4945746;28;20038;-66
2024/02/20 01:56:29;;;;;;;26.17;3.10;;;;;;;4.79;58.93;102436.84;4960421;28;20125;-68
2024/02/20 01:58:56;;;;;;;33.95;5.10;;;;;;;4.53;60.09;102437.44;4947802;28;20038;-72
2024/02/20 02:01:25;;;;;;;28.58;4.35;;;;;;;4.68;59.23;102434.16;4941529;28;21048;-72
2024/02/20 02:03:52;;;;;;;29.10;3.95;;;;;;;4.67;59.54;102437.56;4923495;28;20093;-72
2024/02/20 02:06:30;;;;;;;41.45;4.60;;;;;;;4.77;59.23;102449.78;4955128;28;20046;-71
2024/02/20 02:08:58;;;;;;;33.30;4.70;;;;;;;4.84;58.67;102437.75;4949962;28;20133;-72
2024/02/20 02:11:23;;;;;;;33.55;3.03;;;;;;;4.74;58.30;102441.09;4965292;28;20042;-71
2024/02/20 02:13:49;;;;;;;24.08;3.05;;;;;;;4.76;58.47;102437.66;4964820;28;20062;-71
2024/02/20 02:16:14;;;;;;;21.38;3.22;;;;;;;4.63;59.05;102448.75;4954203;28;20042;-72
2024/02/20 02:18:40;;;;;;;27.20;3.20;;;;;;;4.53;59.40;102445.22;4981787;28;20042;-72
2024/02/20 02:21:05;;;;;;;32.78;2.83;;;;;;;4.39;59.88;102442.47;4984874;28;20066;-73
2024/02/20 02:23:31;;;;;;;31.25;3.90;;;;;;;4.25;60.64;102444.03;4994129;28;20042;-72
2024/02/20 02:25:56;;;;;;;29.67;4.32;;;;;;;4.33;60.02;102442.41;4986003;28;20114;-73
2024/02/20 02:28:21;;;;;;;22.77;2.70;;;;;;;4.34;59.72;102438.97;4973741;28;20023;-73
2024/02/20 02:30:47;;;;;;;26.00;4.18;;;;;;;4.18;60.47;102442.22;4978601;28;20674;-68
2024/02/20 02:33:12;;;;;;;18.65;2.72;;;;;;;4.28;60.14;102449.25;4961407;28;20423;-69
2024/02/20 02:35:39;;;;;;;41.92;5.40;;;;;;;4.16;60.21;102446.50;4942595;28;20536;-69
2024/02/20 02:38:05;;;;;;;29.23;3.63;;;;;;;4.15;60.17;102447.38;4944188;28;20045;-72
2024/02/20 02:40:31;;;;;;;20.90;2.40;;;;;;;4.07;60.38;102446.41;4937073;28;20501;-72
2024/02/20 02:42:56;;;;;;;19.95;3.28;;;;;;;4.17;60.00;102451.72;4934873;28;20122;-72
2024/02/20 02:45:22;;;;;;;33.70;3.75;;;;;;;3.86;60.93;102460.81;4940185;28;20683;-71
2024/02/20 02:47:47;;;;;;;29.73;2.83;;;;;;;3.94;60.75;102454.03;4951887;28;20148;-72
2024/02/20 02:50:13;;;;;;;27.95;4.30;;;;;;;3.87;61.15;102467.69;4929065;28;20182;-71
2024/02/20 02:52:41;;;;;;;37.50;3.70;;;;;;;3.91;60.78;102450.50;4907790;28;20997;-72
2024/02/20 02:55:07;;;;;;;40.10;3.88;;;;;;;3.51;62.46;102455.13;4880119;28;20034;-73
2024/02/20 02:57:33;;;;;;;40.50;5.30;;;;;;;3.82;61.46;102450.41;4905485;28;20034;-73
2024/02/20 02:59:59;;;;;;;22.23;2.83;;;;;;;3.62;61.79;102452.69;4900171;28;20695;-73
2024/02/20 03:02:25;;;;;;;24.45;3.75;;;;;;;3.83;61.32;102445.25;4875198;28;20076;-72
2024/02/20 03:04:50;;;;;;;24.83;2.83;;;;;;;3.69;61.95;102451.94;4944564;28;20042;-72
2024/02/20 03:07:15;;;;;;;24.48;3.70;;;;;;;3.62;61.75;102448.38;4951291;28;20701;-71
2024/02/20 03:09:41;;;;;;;22.73;2.90;;;;;;;3.79;61.08;102457.25;4965394;28;20030;-71
2024/02/20 03:12:07;;;;;;;33.72;2.70;;;;;;;3.54;62.08;102452.59;4951560;28;20537;-72
2024/02/20 03:14:33;;;;;;;30.85;2.65;;;;;;;3.56;61.87;102441.44;4965852;28;20779;-67
2024/02/20 03:17:01;;;;;;;16.65;4.18;;;;;;;3.60;62.01;102444.91;4954110;28;20030;-68
2024/02/20 03:19:27;;;;;;;26.23;2.95;;;;;;;3.55;61.70;102444.84;4962484;28;20034;-68
2024/02/20 03:21:53;;;;;;;25.10;2.83;;;;;;;3.38;62.22;102451.47;4964197;28;20038;-68
2024/02/20 03:24:21;;;;;;;22.17;3.35;;;;;;;3.50;62.26;102449.09;4920904;28;20039;-68
2024/02/20 03:26:46;;;;;;;41.70;4.05;;;;;;;3.47;61.90;102451.66;4947209;28;20046;-68
2024/02/20 03:29:12;;;;;;;24.23;2.95;;;;;;;3.51;61.84;102447.38;4953223;28;20039;-68
2024/02/20 03:31:37;;;;;;;29.17;3.40;;;;;;;3.80;60.92;102450.38;4963480;28;20046;-68
2024/02/20 03:34:03;;;;;;;24.20;2.50;;;;;;;3.35;62.37;102451.44;4952283;28;20042;-68
2024/02/20 03:36:28;;;;;;;23.75;3.03;;;;;;;3.69;61.68;102454.53;4962809;28;20046;-68
2024/02/20 03:38:53;;;;;;;26.70;3.00;;;;;;;3.65;61.05;102451.03;4960907;28;20046;-68
2024/02/20 03:41:19;;;;;;;37.65;3.83;;;;;;;3.64;61.53;102451.88;4951412;28;21207;-68
2024/02/20 03:43:44;;;;;;;25.00;3.35;;;;;;;3.73;60.78;102458.88;4962465;28;20061;-68
2024/02/20 03:46:11;;;;;;;25.55;2.72;;;;;;;3.67;61.37;102461.38;4953908;28;20504;-68
2024/02/20 03:48:37;;;;;;;30.67;2.50;;;;;;;3.66;61.49;102463.09;4964099;28;20038;-68
2024/02/20 03:51:04;;;;;;;26.40;4.07;;;;;;;3.55;62.08;102455.19;4951796;28;20098;-68
2024/02/20 03:53:30;;;;;;;27.25;3.35;;;;;;;3.61;61.89;102457.00;4964058;28;20034;-68
2024/02/20 03:55:56;;;;;;;28.27;3.33;;;;;;;3.70;61.65;102458.88;4960330;28;20049;-69
2024/02/20 03:58:21;;;;;;;29.67;3.58;;;;;;;3.72;61.30;102464.94;4953445;28;21750;-69
2024/02/20 04:00:47;;;;;;;25.60;5.30;;;;;;;3.82;60.86;102465.91;4961724;28;20373;-69
2024/02/20 04:03:14;;;;;;;21.73;3.28;;;;;;;3.57;62.00;102473.31;4953676;28;20034;-69
2024/02/20 04:05:41;;;;;;;19.33;3.10;;;;;;;3.57;61.65;102473.31;4943433;28;20038;-69
2024/02/20 04:08:07;;;;;;;26.63;2.67;;;;;;;3.29;63.22;102472.00;4952682;28;20121;-68
2024/02/20 04:10:32;;;;;;;25.88;2.35;;;;;;;3.68;61.96;102461.41;4943538;28;20064;-68
2024/02/20 04:12:58;;;;;;;25.17;2.70;;;;;;;3.55;62.21;102462.09;4962363;28;20033;-68
2024/02/20 04:15:23;;;;;;;19.40;1.73;;;;;;;3.65;62.01;102466.56;4951070;28;22075;-69
2024/02/20 04:17:49;;;;;;;22.20;2.72;;;;;;;3.36;62.92;102468.69;4961797;28;20053;-69
2024/02/20 04:20:14;;;;;;;35.58;3.63;;;;;;;3.39;63.10;102468.75;4950823;28;20038;-70
2024/02/20 04:22:40;;;;;;;26.35;2.60;;;;;;;3.85;61.31;102466.84;4959103;28;20447;-70
2024/02/20 04:25:08;;;;;;;15.77;2.45;;;;;;;3.97;60.77;102464.41;4936478;28;20132;-71
2024/02/20 04:27:34;;;;;;;26.63;3.00;;;;;;;3.87;61.21;102453.91;4943294;28;20558;-72
2024/02/20 04:29:59;;;;;;;22.90;2.42;;;;;;;3.71;61.89;102460.59;4961053;28;20041;-72
2024/02/20 04:32:26;;;;;;;39.22;3.03;;;;;;;3.64;62.43;102472.56;4907346;28;21287;-74
2024/02/20 04:34:52;;;;;;;19.08;3.47;;;;;;;3.77;62.04;102463.25;4954508;28;20114;-70
2024/02/20 04:37:18;;;;;;;27.48;3.15;;;;;;;3.82;61.34;102469.38;4949543;28;20038;-72
2024/02/20 04:39:44;;;;;;;28.92;3.45;;;;;;;3.74;61.61;102476.16;4963629;28;20106;-72
2024/02/20 04:42:10;;;;;;;24.33;2.08;;;;;;;3.69;61.98;102477.78;4949323;28;20596;-75
2024/02/20 04:44:37;;;;;;;36.10;4.13;;;;;;;3.72;61.69;102485.63;4945037;28;20496;-69
2024/02/20 04:47:03;;;;;;;24.02;3.45;;;;;;;3.53;62.84;102481.88;4948296;28;20038;-68
2024/02/20 04:49:29;;;;;;;31.73;3.13;;;;;;;3.61;62.28;102480.28;4954945;28;20043;-68
2024/02/20 04:51:55;;;;;;;26.13;3.60;;;;;;;3.41;63.43;102474.81;4960920;28;20085;-74
2024/02/20 04:54:20;;;;;;;24.70;3.13;;;;;;;3.77;61.92;102476.19;4940672;28;21644;-68
2024/02/20 04:56:48;;;;;;;21.92;3.22;;;;;;;3.47;62.98;102489.53;4944677;28;20046;-66
2024/02/20 04:59:16;;;;;;;20.65;2.88;;;;;;;3.57;62.68;102489.69;4928489;28;20057;-72
2024/02/20 05:01:42;;;;;;;26.20;3.25;;;;;;;3.61;62.27;102493.22;4960654;28;20076;-70
2024/02/20 05:04:09;;;;;;;32.15;3.20;;;;;;;3.48;62.82;102489.56;4940127;28;20441;-69
2024/02/20 05:06:35;;;;;;;36.92;3.45;;;;;;;3.55;62.74;102486.22;4945381;28;20523;-68
2024/02/20 05:09:00;;;;;;;28.40;3.55;;;;;;;3.37;63.04;102480.78;4940980;28;20038;-67
2024/02/20 05:11:26;;;;;;;24.02;2.83;;;;;;;3.29;63.83;102479.75;4948495;28;20129;-67
2024/02/20 05:13:52;;;;;;;27.38;2.97;;;;;;;3.20;64.30;102483.03;4958646;28;20707;-70
2024/02/20 05:16:17;;;;;;;31.73;2.97;;;;;;;2.93;64.98;102484.28;4944170;28;20524;-67
2024/02/20 05:18:43;;;;;;;24.45;3.15;;;;;;;3.61;62.62;102488.03;4950509;28;20046;-68
2024/02/20 05:21:08;;;;;;;29.42;3.25;;;;;;;3.63;62.34;102477.69;4936977;28;20144;-68
2024/02/20 05:23:34;;;;;;;17.33;1.77;;;;;;;3.61;62.34;102487.19;4951147;28;20658;-68
2024/02/20 05:25:59;;;;;;;38.28;3.05;;;;;;;3.29;63.49;102478.06;4956166;28;20049;-68
2024/02/20 05:28:25;;;;;;;19.05;2.08;;;;;;;3.41;63.05;102477.41;4951455;28;21206;-66
2024/02/20 05:30:51;;;;;;;29.23;3.42;;;;;;;3.38;63.24;102469.56;4937929;28;21802;-73
2024/02/20 05:33:16;;;;;;;19.77;1.85;;;;;;;3.56;62.57;102476.72;4912547;28;20074;-74
2024/02/20 05:35:44;;;;;;;34.00;3.80;;;;;;;3.68;62.25;102465.72;4941331;28;20552;-74
2024/02/20 05:38:10;;;;;;;15.15;2.17;;;;;;;3.79;61.56;102469.31;4940727;28;20040;-74
2024/02/20 05:40:36;;;;;;;30.92;2.97;;;;;;;3.44;62.00;102472.25;4934757;28;20038;-73
2024/02/20 05:43:02;;;;;;;26.02;2.20;;;;;;;3.39;62.26;102472.19;4960103;28;20252;-73
2024/02/20 05:45:33;;;;;;;28.67;2.60;;;;;;;3.35;62.48;102472.13;4917279;28;20068;-73
2024/02/20 05:48:01;;;;;;;21.45;2.10;;;;;;;3.51;61.45;102468.06;4956707;28;20222;-74
2024/02/20 05:50:31;;;;;;;19.23;3.15;;;;;;;3.08;63.09;102481.13;4950445;28;20723;-73
2024/02/20 05:52:56;;;;;;;28.50;3.38;;;;;;;3.22;63.45;102475.31;4966351;28;20050;-74
2024/02/20 05:55:22;;;;;;;22.65;2.72;;;;;;;3.38;63.47;102473.06;4925731;28;20129;-73
2024/02/20 05:57:48;;;;;;;23.25;2.33;;;;;;;3.37;63.15;102473.00;4954459;28;20030;-74
2024/02/20 06:00:14;;;;;;;19.25;2.28;;;;;;;3.58;62.81;102470.78;4957136;28;20077;-69
2024/02/20 06:02:39;;;;;;;36.75;4.50;;;;;;;3.77;62.44;102471.03;4952125;28;20038;-70
2024/02/20 06:05:07;;;;;;;26.25;4.07;;;;;;;3.45;63.27;102479.19;4953471;28;20038;-70
2024/02/20 06:07:32;;;;;;;26.38;2.90;;;;;;;3.92;62.19;102473.81;4915371;28;20041;-69
2024/02/20 06:10:00;;;;;;;47.33;4.28;;;;;;;3.51;63.60;102479.25;4941362;28;20030;-69
2024/02/20 06:12:26;;;;;;;22.85;3.00;;;;;;;3.62;63.34;102474.25;4943304;28;20137;-74
2024/02/20 06:14:52;;;;;;;28.85;2.95;;;;;;;3.55;63.71;102470.69;4957509;28;20121;-68
2024/02/20 06:17:18;;;;;;;20.45;2.33;;;;;;;3.74;63.59;102468.41;4929410;28;20133;-68
2024/02/20 06:19:43;;;;;;;30.80;4.18;;;;;;;3.83;63.41;102470.22;4955802;28;20348;-72
2024/02/20 06:22:09;;;;;;;26.95;4.45;;;;;;;3.74;63.59;102474.44;4955593;28;20133;-69
2024/02/20 06:24:39;;;;;;;32.40;4.75;;;;;;;3.96;63.31;102478.19;4952038;28;20042;-72
2024/02/20 06:27:07;;;;;;;11.55;3.53;;;;;;;3.81;63.58;102483.16;4947666;28;20054;-69
2024/02/20 06:29:33;;;;;;;40.90;3.50;;;;;;;3.36;64.80;102485.06;4947976;28;20065;-68
2024/02/20 06:31:59;;;;;;;32.00;2.70;;;;;;;3.76;63.98;102467.56;4959567;28;20125;-67
2024/02/20 06:34:24;;;;;;;21.40;2.88;;;;;;;3.81;64.02;102467.63;4948597;28;20892;-67
2024/02/20 06:36:51;;;;;;;27.17;3.05;;;;;;;4.06;63.21;102463.66;4960954;28;20045;-68
2024/02/20 06:39:16;;;;;;;15.30;3.38;;;;;;;4.26;62.49;102466.47;4954194;28;20041;-68
2024/02/20 06:41:42;;;;;;;32.58;3.60;;;;;;;4.13;62.65;102464.59;4944770;28;20733;-70
2024/02/20 06:44:10;;;;;;;38.55;4.75;;;;;;;4.16;62.76;102459.44;4944951;28;20672;-64
2024/02/20 06:46:42;;;;;;;22.50;2.92;;;;;;;4.00;63.45;102451.50;4907911;28;20102;-67
2024/02/20 06:49:10;;;;;;;30.65;4.32;;;;;;;4.12;63.13;102452.50;4923035;28;20057;-66
2024/02/20 06:51:35;;;;;;;17.00;2.63;;;;;;;3.93;63.29;102439.34;4896296;28;20053;-69
2024/02/20 06:54:03;;;;;;;28.48;4.18;;;;;;;4.26;62.99;102452.69;4934031;28;20042;-70
2024/02/20 06:56:28;;;;;;;17.65;2.72;;;;;;;4.45;61.87;102452.00;4889920;28;20746;-70
2024/02/20 06:58:54;;;;;;;23.25;2.80;;;;;;;4.24;62.78;102452.66;4901408;28;20185;-68
2024/02/20 07:01:20;;;;;;;18.88;3.75;;;;;;;3.87;63.63;102449.59;4896092;28;20721;-68
2024/02/20 07:03:48;;;;;;;44.85;5.03;;;;;;;3.92;63.72;102455.72;4884458;28;20033;-64
2024/02/20 07:06:15;;;;;;;32.88;3.65;;;;;;;4.41;62.21;102450.28;4900537;28;20109;-69
2024/02/20 07:08:43;;;;;;;28.40;4.55;;;;;;;4.50;61.85;102449.47;4911998;28;20488;-65
2024/02/20 07:11:10;;;;;;;17.95;2.88;;;;;;;4.31;62.09;102454.44;4959809;28;20057;-65
2024/02/20 07:13:38;;;;;;;24.92;3.15;;;;;;;4.60;61.70;102459.09;4952736;28;20034;-66
2024/02/20 07:16:06;;;;;;;29.40;3.80;;;;;;;4.28;62.45;102454.44;4942549;28;24735;-65
2024/02/20 07:18:31;;;;;;;26.48;4.65;;;;;;;4.44;62.13;102450.28;4950447;28;20041;-65
2024/02/20 07:20:58;;;;;;;30.88;5.15;;;;;;;4.64;61.08;102458.28;4959004;28;20046;-65
2024/02/20 07:23:24;;;;;;;31.88;4.80;;;;;;;4.67;61.13;102457.44;4942771;28;20054;-63
2024/02/20 07:25:50;;;;;;;27.83;4.03;;;;;;;4.61;61.24;102453.06;4941716;28;21515;-69
2024/02/20 07:28:16;;;;;;;27.65;4.32;;;;;;;4.53;61.56;102460.75;4930528;28;20994;-71
2024/02/20 07:30:42;;;;;;;20.88;3.75;;;;;;;4.32;61.96;102453.63;4913544;28;20050;-66
2024/02/20 07:33:10;;;;;;;34.55;4.75;;;;;;;4.59;61.06;102463.41;4962263;28;20030;-73
2024/02/20 07:35:38;;;;;;;31.90;3.45;;;;;;;4.50;61.75;102455.53;4949174;28;20042;-67
2024/02/20 07:38:04;;;;;;;23.40;4.45;;;;;;;4.73;61.06;102463.53;4950759;28;20030;-68
2024/02/20 07:40:30;;;;;;;19.77;3.92;;;;;;;4.81;60.75;102467.09;4938245;28;20609;-68
2024/02/20 07:42:56;;;;;;;42.40;5.68;;;;;;;4.81;60.20;102461.91;4959513;28;20460;-69
2024/02/20 07:45:21;;;;;;;29.80;4.90;;;;;;;4.48;61.32;102461.56;4957233;28;20038;-69
2024/02/20 07:47:47;;;;;;;27.83;5.13;;;;;;;4.41;61.27;102465.81;4953900;28;20089;-70
2024/02/20 07:50:13;;;;;;;26.27;4.97;;;;;;;4.71;60.69;102460.06;4943904;28;20046;-68
2024/02/20 07:52:38;;;;;;;26.83;5.65;;;;;;;4.78;60.52;102456.66;4943430;28;20038;-68
2024/02/20 07:55:05;;;;;;;29.33;6.63;;;;;;;4.16;61.87;102467.22;4963608;28;20037;-67
2024/02/20 07:57:33;;;;;;;31.50;5.90;;;;;;;3.96;62.83;102470.44;4948967;28;20147;-69
2024/02/20 07:59:59;;;;;;;30.23;5.05;;;;;;;4.05;62.35;102458.44;4960541;28;20030;-68
2024/02/20 08:02:24;;;;;;;24.80;4.60;;;;;;;4.53;61.48;102457.28;4935408;28;20045;-69
2024/02/20 08:04:51;;;;;;;25.40;5.00;;;;;;;4.27;61.59;102455.25;4947312;28;20961;-68
2024/02/20 08:07:17;;;;;;;19.42;4.88;;;;;;;4.63;60.62;102447.03;4941371;28;20042;-69
2024/02/20 08:09:43;;;;;;;21.88;5.00;;;;;;;4.71;60.87;102460.06;4951763;28;20034;-67
2024/02/20 08:12:08;;;;;;;30.45;5.63;;;;;;;4.85;60.54;102452.41;4955729;28;20979;-68
2024/02/20 08:14:34;;;;;;;28.20;3.83;;;;;;;4.70;60.55;102452.25;4910500;28;20070;-69
2024/02/20 08:16:59;;;;;;;27.25;4.80;;;;;;;5.08;59.46;102455.25;4957381;28;20075;-69
2024/02/20 08:19:25;;;;;;;24.25;4.78;;;;;;;5.07;59.15;102456.09;4953370;28;20030;-70
2024/02/20 08:21:51;;;;;;;27.33;5.32;;;;;;;5.02;59.46;102444.84;4952673;28;20068;-68
2024/02/20 08:24:16;;;;;;;26.65;4.57;;;;;;;5.11;59.19;102450.09;4962516;28;20108;-69
2024/02/20 08:26:44;;;;;;;32.05;5.68;;;;;;;4.43;59.58;102462.38;4965217;28;20050;-69
2024/02/20 08:29:12;;;;;;;25.52;5.40;;;;;;;4.88;59.65;102459.38;4963013;28;20041;-67
2024/02/20 08:31:48;;;;;;;26.25;5.10;;;;;;;4.58;59.88;102464.25;4959024;28;20054;-69
2024/02/20 08:34:14;;;;;;;29.98;4.43;;;;;;;5.36;59.03;102461.50;4973452;28;20168;-67
2024/02/20 08:36:39;;;;;;;23.75;4.07;;;;;;;5.07;58.90;102458.69;4965300;28;20851;-63
2024/02/20 08:39:06;;;;;;;36.53;5.15;;;;;;;5.21;58.95;102454.50;4959636;28;20065;-69
2024/02/20 08:41:34;;;;;;;29.05;4.53;;;;;;;4.68;59.86;102461.78;4937061;28;20070;-69
2024/02/20 08:43:59;;;;;;;45.13;5.85;;;;;;;5.07;59.14;102461.28;4957328;28;20086;-69
2024/02/20 08:46:27;;;;;;;32.25;4.95;;;;;;;4.91;59.27;102459.44;4946583;28;20594;-68
2024/02/20 08:48:53;;;;;;;14.02;4.40;;;;;;;4.78;59.53;102458.41;4949835;28;20248;-64
2024/02/20 08:51:18;;;;;;;19.92;5.32;;;;;;;5.05;59.40;102456.06;4925002;28;20606;-68
2024/02/20 08:53:46;;;;;;;26.85;5.35;;;;;;;5.22;58.60;102463.16;4946819;28;20061;-68
2024/02/20 08:56:12;;;;;;;32.35;5.88;;;;;;;5.10;59.48;102455.25;4961791;28;20042;-69
2024/02/20 08:58:38;;;;;;;23.23;4.93;;;;;;;4.75;60.24;102472.19;4956980;28;20105;-69
2024/02/20 09:01:04;;;;;;;17.95;3.28;;;;;;;4.95;60.30;102463.78;4938526;28;20046;-69
2024/02/20 09:03:30;;;;;;;25.80;4.65;;;;;;;5.44;59.16;102465.03;4941671;28;20034;-67
2024/02/20 09:05:55;;;;;;;25.23;3.63;;;;;;;5.32;59.08;102470.13;4941541;28;20185;-68
2024/02/20 09:08:23;;;;;;;25.13;4.15;;;;;;;4.95;59.73;102468.97;4962726;28;20061;-69
2024/02/20 09:10:49;;;;;;;29.15;3.38;;;;;;;5.12;59.61;102463.91;4937571;28;20758;-71
2024/02/20 09:13:14;;;;;;;28.70;5.03;;;;;;;5.23;58.84;102470.94;4951328;28;20035;-70
2024/02/20 09:15:40;;;;;;;10.30;2.80;;;;;;;5.31;58.98;102477.91;4942798;28;20113;-69
2024/02/20 09:18:06;;;;;;;26.67;3.33;;;;;;;5.22;60.19;102476.97;4945814;28;20038;-70
2024/02/20 09:20:33;;;;;;;23.38;4.47;;;;;;;5.13;59.32;102463.94;4958890;28;20538;-69
2024/02/20 09:22:59;;;;;;;22.42;3.58;;;;;;;5.25;59.43;102458.84;4951681;28;20037;-69
2024/02/20 09:25:25;;;;;;;13.95;3.10;;;;;;;5.60;58.93;102463.41;4958175;28;20048;-69
2024/02/20 09:27:50;;;;;;;24.45;3.92;;;;;;;5.08;59.46;102470.81;4898073;28;20199;-69
2024/02/20 09:30:16;;;;;;;27.88;5.63;;;;;;;5.35;59.21;102470.16;4919764;28;20081;-69
2024/02/20 09:32:43;;;;;;;28.67;5.93;;;;;;;5.57;58.70;102465.09;4905114;28;20118;-69
2024/02/20 09:35:11;;;;;;;32.47;5.88;;;;;;;5.56;59.03;102453.88;4896925;28;20057;-69
2024/02/20 09:37:39;;;;;;;31.77;6.30;;;;;;;5.40;58.86;102467.59;4913890;28;20042;-69
2024/02/20 09:40:05;;;;;;;24.20;5.25;;;;;;;5.14;59.30;102460.47;4950467;28;20093;-69
2024/02/20 09:42:39;;;;;;;24.50;4.57;;;;;;;5.37;59.11;102467.56;4954089;28;20042;-69
2024/02/20 09:45:07;;;;;;;27.45;5.32;;;;;;;5.20;59.19;102465.72;4953975;28;20069;-69
2024/02/20 09:47:35;;;;;;;24.67;6.63;;;;;;;5.07;59.96;102468.19;4955396;28;20030;-69
2024/02/20 09:50:02;;;;;;;27.38;6.38;;;;;;;5.23;59.35;102468.34;4950976;28;20553;-70
2024/02/20 09:52:28;;;;;;;23.52;6.75;;;;;;;4.83;60.19;102467.97;4907034;28;20042;-68
2024/02/20 09:54:54;;;;;;;22.88;6.13;;;;;;;5.08;59.91;102475.09;4889830;28;20530;-68
2024/02/20 09:57:21;;;;;;;22.55;6.30;;;;;;;5.35;59.09;102469.28;4924464;28;20048;-69
2024/02/20 09:59:46;;;;;;;21.73;7.32;;;;;;;5.48;58.98;102478.00;4912683;28;21530;-69
2024/02/20 10:02:28;;;;;;;27.65;7.68;;;;;;;4.85;60.59;102478.31;4873567;28;20046;-69
2024/02/20 10:04:53;;;;;;;28.93;7.07;;;;;;;5.03;60.06;102475.06;4890656;28;20045;-69
2024/02/20 10:07:21;;;;;;;26.05;7.32;;;;;;;5.18;60.73;102474.34;4901600;28;20476;-72
2024/02/20 10:09:47;;;;;;;21.25;6.75;;;;;;;5.35;59.83;102469.28;4893134;28;22290;-70
2024/02/20 10:12:35;;;;;;;23.50;6.68;;;;;;;5.21;59.91;102464.88;4886892;28;20193;-69
2024/02/20 10:15:08;;;;;;;27.35;5.93;;;;;;;5.17;59.22;102470.88;4932643;28;20740;-71
2024/02/20 10:17:37;;;;;;;25.67;6.28;;;;;;;5.23;59.80;102465.75;4953444;28;20121;-69
2024/02/20 10:20:10;;;;;;;20.88;6.75;;;;;;;5.84;57.47;102464.41;4952803;28;20202;-69
2024/02/20 10:22:39;;;;;;;22.55;6.43;;;;;;;5.82;57.78;102456.63;4939353;28;20058;-69
2024/02/20 10:25:08;;;;;;;30.27;7.03;;;;;;;5.82;58.05;102455.75;4952126;28;20038;-69
2024/02/20 10:27:36;;;;;;;18.50;6.22;;;;;;;6.07;57.55;102451.53;4956400;28;20051;-69
2024/02/20 10:30:07;;;;;;;23.60;7.88;;;;;;;6.05;57.42;102450.66;4956075;28;20045;-69
2024/02/20 10:32:34;;;;;;;30.45;8.70;;;;;;;5.84;57.73;102448.84;4936924;28;20034;-69
2024/02/20 10:35:05;;;;;;;21.48;8.30;;;;;;;6.22;56.70;102438.63;4942097;28;20038;-69
2024/02/20 10:37:31;;;;;;;29.55;8.63;;;;;;;6.02;57.51;102446.34;4926769;28;20026;-68
2024/02/20 10:40:23;;;;;;;26.85;8.18;;;;;;;6.39;57.09;102445.63;4957860;28;20137;-69
2024/02/20 10:42:50;;;;;;;33.40;9.32;;;;;;;6.27;56.69;102455.06;4940959;28;20119;-69
2024/02/20 10:45:17;;;;;;;33.72;8.65;;;;;;;6.09;56.46;102450.69;4960821;28;20106;-69
2024/02/20 10:47:47;;;;;;;29.88;7.85;;;;;;;6.42;56.21;102446.50;4948332;28;20034;-69
2024/02/20 10:50:14;;;;;;;24.48;8.32;;;;;;;6.53;56.34;102450.84;4930196;28;20463;-68
2024/02/20 10:52:40;;;;;;;32.35;8.95;;;;;;;6.96;54.45;102443.13;4955109;28;20043;-69
2024/02/20 10:55:08;;;;;;;27.08;8.55;;;;;;;6.23;56.60;102447.28;4939348;28;20069;-69
2024/02/20 10:57:41;;;;;;;24.98;7.65;;;;;;;6.41;56.06;102436.97;4941688;28;20836;-70
2024/02/20 11:00:11;;;;;;;25.23;7.03;;;;;;;7.53;54.58;102439.59;4934208;28;20046;-69
2024/02/20 11:02:42;;;;;;;18.70;6.07;;;;;;;7.21;54.42;102437.03;4934298;28;20030;-69
2024/02/20 11:05:15;;;;;;;25.67;5.05;;;;;;;7.11;54.51;102440.53;4958319;28;20436;-69
2024/02/20 11:07:41;;;;;;;33.55;7.53;;;;;;;6.53;54.83;102445.63;4955335;28;20039;-69
2024/02/20 11:10:16;;;;;;;28.35;5.75;;;;;;;7.02;54.61;102430.09;4954893;28;20050;-69
2024/02/20 11:12:43;;;;;;;28.30;6.47;;;;;;;7.12;54.57;102431.84;4957097;28;20030;-69
2024/02/20 11:15:14;;;;;;;35.33;7.25;;;;;;;6.50;55.40;102431.78;4955453;28;20041;-69
2024/02/20 11:17:42;;;;;;;23.38;5.28;;;;;;;7.30;54.43;102418.81;4958004;28;20887;-69
2024/02/20 11:20:16;;;;;;;18.92;4.72;;;;;;;5.83;57.91;102431.53;4936425;28;20033;-68
2024/02/20 11:22:45;;;;;;;20.80;4.47;;;;;;;6.65;56.05;102425.75;4956334;28;20014;-69